sensor_id;sensor_type;location;lat;lon;timestamp;pressure;altitude;pressure_sealevel;temperature;humidity
51928;BME280;37953;52.806;18.270;2023-05-01T00:00:20;101270.28;;;8.51;81.50
51928;BME280;37953;52.806;18.270;2023-05-01T00:03:06;101260.75;;;8.50;82.14
51928;BME280;37953;52.806;18.270;2023-05-01T00:05:32;101261.53;;;8.46;82.13
51928;BME280;37953;52.806;18.270;2023-05-01T00:07:59;101263.19;;;8.43;82.28
51928;BME280;37953;52.806;18.270;2023-05-01T00:10:24;101262.28;;;8.41;83.06
51928;BME280;37953;52.806;18.270;2023-05-01T00:12:50;101256.09;;;8.37;83.48
51928;BME280;37953;52.806;18.270;2023-05-01T00:15:16;101254.31;;;8.34;82.88
51928;BME280;37953;52.806;18.270;2023-05-01T00:17:42;101256.81;;;8.31;83.16
51928;BME280;37953;52.806;18.270;2023-05-01T00:20:09;101254.16;;;8.28;83.05
51928;BME280;37953;52.806;18.270;2023-05-01T00:22:41;101261.06;;;8.28;83.77
51928;BME280;37953;52.806;18.270;2023-05-01T00:25:07;101260.09;;;8.24;83.36
51928;BME280;37953;52.806;18.270;2023-05-01T00:27:35;101267.75;;;8.20;83.55
51928;BME280;37953;52.806;18.270;2023-05-01T00:30:01;101263.34;;;8.15;84.52
51928;BME280;37953;52.806;18.270;2023-05-01T00:32:27;101265.81;;;8.11;84.93
51928;BME280;37953;52.806;18.270;2023-05-01T00:34:54;101265.72;;;8.08;85.34
51928;BME280;37953;52.806;18.270;2023-05-01T00:37:22;101260.50;;;8.06;86.30
51928;BME280;37953;52.806;18.270;2023-05-01T00:39:49;101267.31;;;8.03;85.06
51928;BME280;37953;52.806;18.270;2023-05-01T00:42:15;101261.19;;;7.99;86.42
51928;BME280;37953;52.806;18.270;2023-05-01T00:44:41;101254.19;;;7.95;87.08
51928;BME280;37953;52.806;18.270;2023-05-01T00:47:07;101267.03;;;7.92;86.80
51928;BME280;37953;52.806;18.270;2023-05-01T00:49:33;101259.16;;;7.87;87.31
51928;BME280;37953;52.806;18.270;2023-05-01T00:51:59;101264.25;;;7.84;87.19
51928;BME280;37953;52.806;18.270;2023-05-01T00:54:26;101256.41;;;7.81;88.47
51928;BME280;37953;52.806;18.270;2023-05-01T00:56:53;101263.25;;;7.79;88.38
51928;BME280;37953;52.806;18.270;2023-05-01T00:59:20;101259.75;;;7.77;88.84
51928;BME280;37953;52.806;18.270;2023-05-01T01:01:46;101254.44;;;7.72;88.69
51928;BME280;37953;52.806;18.270;2023-05-01T01:04:15;101263.91;;;7.72;89.21
51928;BME280;37953;52.806;18.270;2023-05-01T01:06:48;101250.03;;;7.68;89.32
51928;BME280;37953;52.806;18.270;2023-05-01T01:12:02;101250.38;;;7.82;90.52
51928;BME280;37953;52.806;18.270;2023-05-01T01:17:32;101250.81;;;7.66;90.86
51928;BME280;37953;52.806;18.270;2023-05-01T01:22:40;101251.25;;;7.51;92.25
51928;BME280;37953;52.806;18.270;2023-05-01T01:34:19;101249.44;;;7.47;91.32
51928;BME280;37953;52.806;18.270;2023-05-01T01:39:48;101242.28;;;7.37;92.63
51928;BME280;37953;52.806;18.270;2023-05-01T01:42:50;101237.06;;;7.35;93.32
51928;BME280;37953;52.806;18.270;2023-05-01T01:45:21;101242.00;;;7.27;92.97
51928;BME280;37953;52.806;18.270;2023-05-01T01:47:49;101239.28;;;7.23;93.24
51928;BME280;37953;52.806;18.270;2023-05-01T01:50:23;101238.41;;;7.22;93.24
51928;BME280;37953;52.806;18.270;2023-05-01T01:52:52;101239.09;;;7.17;92.29
51928;BME280;37953;52.806;18.270;2023-05-01T01:55:24;101240.81;;;7.16;92.62
51928;BME280;37953;52.806;18.270;2023-05-01T01:57:52;101238.97;;;7.12;92.64
51928;BME280;37953;52.806;18.270;2023-05-01T02:00:19;101232.00;;;7.09;93.10
51928;BME280;37953;52.806;18.270;2023-05-01T02:02:52;101231.97;;;7.08;93.06
51928;BME280;37953;52.806;18.270;2023-05-01T02:05:20;101225.94;;;7.07;94.81
51928;BME280;37953;52.806;18.270;2023-05-01T02:07:49;101224.16;;;7.06;94.80
51928;BME280;37953;52.806;18.270;2023-05-01T02:10:16;101212.88;;;7.03;94.67
51928;BME280;37953;52.806;18.270;2023-05-01T02:12:47;101214.63;;;7.04;95.02
51928;BME280;37953;52.806;18.270;2023-05-01T02:15:17;101216.28;;;7.02;96.30
51928;BME280;37953;52.806;18.270;2023-05-01T02:17:44;101217.88;;;6.98;95.81
51928;BME280;37953;52.806;18.270;2023-05-01T02:20:11;101214.44;;;6.98;96.68
51928;BME280;37953;52.806;18.270;2023-05-01T02:22:42;101207.53;;;6.97;97.38
51928;BME280;37953;52.806;18.270;2023-05-01T02:25:17;101206.56;;;6.93;97.18
51928;BME280;37953;52.806;18.270;2023-05-01T02:27:46;101206.50;;;6.91;96.98
51928;BME280;37953;52.806;18.270;2023-05-01T02:30:19;101202.97;;;6.88;96.96
51928;BME280;37953;52.806;18.270;2023-05-01T02:32:45;101196.84;;;6.84;96.72
51928;BME280;37953;52.806;18.270;2023-05-01T02:35:11;101196.72;;;6.81;97.37
51928;BME280;37953;52.806;18.270;2023-05-01T02:37:37;101200.03;;;6.77;98.54
51928;BME280;37953;52.806;18.270;2023-05-01T02:40:04;101191.34;;;6.73;98.41
51928;BME280;37953;52.806;18.270;2023-05-01T02:42:32;101194.72;;;6.71;98.96
51928;BME280;37953;52.806;18.270;2023-05-01T02:45:02;101199.84;;;6.69;99.27
51928;BME280;37953;52.806;18.270;2023-05-01T02:47:32;101188.59;;;6.67;99.24
51928;BME280;37953;52.806;18.270;2023-05-01T02:50:00;101189.31;;;6.63;99.40
51928;BME280;37953;52.806;18.270;2023-05-01T02:52:33;101186.69;;;6.62;98.98
51928;BME280;37953;52.806;18.270;2023-05-01T02:54:59;101196.88;;;6.57;99.55
51928;BME280;37953;52.806;18.270;2023-05-01T02:57:25;101189.06;;;6.56;100.00
51928;BME280;37953;52.806;18.270;2023-05-01T02:59:51;101185.56;;;6.53;99.97
51928;BME280;37953;52.806;18.270;2023-05-01T03:02:17;101186.34;;;6.51;100.00
51928;BME280;37953;52.806;18.270;2023-05-01T03:04:44;101186.28;;;6.49;100.00
51928;BME280;37953;52.806;18.270;2023-05-01T03:07:09;101182.78;;;6.46;100.00
51928;BME280;37953;52.806;18.270;2023-05-01T03:09:35;101184.44;;;6.44;100.00
51928;BME280;37953;52.806;18.270;2023-05-01T03:12:02;101186.94;;;6.42;100.00
51928;BME280;37953;52.806;18.270;2023-05-01T03:14:28;101180.88;;;6.40;100.00
51928;BME280;37953;52.806;18.270;2023-05-01T03:16:54;101188.59;;;6.40;100.00
51928;BME280;37953;52.806;18.270;2023-05-01T03:19:21;101179.16;;;6.41;100.00
51928;BME280;37953;52.806;18.270;2023-05-01T03:21:47;101180.88;;;6.40;100.00
51928;BME280;37953;52.806;18.270;2023-05-01T03:24:13;101183.44;;;6.40;100.00
51928;BME280;37953;52.806;18.270;2023-05-01T03:26:39;101182.56;;;6.40;100.00
51928;BME280;37953;52.806;18.270;2023-05-01T03:29:05;101180.81;;;6.39;100.00
51928;BME280;37953;52.806;18.270;2023-05-01T03:31:31;101185.97;;;6.39;100.00
51928;BME280;37953;52.806;18.270;2023-05-01T03:33:57;101180.78;;;6.37;100.00
51928;BME280;37953;52.806;18.270;2023-05-01T03:36:23;101179.94;;;6.38;100.00
51928;BME280;37953;52.806;18.270;2023-05-01T03:38:50;101177.34;;;6.38;100.00
51928;BME280;37953;52.806;18.270;2023-05-01T03:41:15;101182.47;;;6.37;100.00
51928;BME280;37953;52.806;18.270;2023-05-01T03:43:42;101185.97;;;6.39;100.00
51928;BME280;37953;52.806;18.270;2023-05-01T03:46:08;101179.16;;;6.41;100.00
51928;BME280;37953;52.806;18.270;2023-05-01T03:48:34;101187.88;;;6.44;100.00
51928;BME280;37953;52.806;18.270;2023-05-01T03:51:00;101190.53;;;6.47;100.00
51928;BME280;37953;52.806;18.270;2023-05-01T03:53:26;101179.47;;;6.50;100.00
51928;BME280;37953;52.806;18.270;2023-05-01T03:55:52;101178.66;;;6.52;100.00
51928;BME280;37953;52.806;18.270;2023-05-01T03:58:18;101177.94;;;6.57;100.00
51928;BME280;37953;52.806;18.270;2023-05-01T04:00:46;101177.16;;;6.59;100.00
51928;BME280;37953;52.806;18.270;2023-05-01T04:03:13;101184.09;;;6.62;100.00
51928;BME280;37953;52.806;18.270;2023-05-01T04:05:39;101186.78;;;6.65;100.00
51928;BME280;37953;52.806;18.270;2023-05-01T04:08:05;101186.06;;;6.69;100.00
51928;BME280;37953;52.806;18.270;2023-05-01T04:10:31;101182.69;;;6.71;100.00
51928;BME280;37953;52.806;18.270;2023-05-01T04:12:57;101187.06;;;6.74;100.00
51928;BME280;37953;52.806;18.270;2023-05-01T04:15:23;101177.69;;;6.78;100.00
51928;BME280;37953;52.806;18.270;2023-05-01T04:17:49;101179.53;;;6.82;100.00
51928;BME280;37953;52.806;18.270;2023-05-01T04:20:15;101178.81;;;6.86;100.00
51928;BME280;37953;52.806;18.270;2023-05-01T04:22:43;101179.75;;;6.89;100.00
51928;BME280;37953;52.806;18.270;2023-05-01T04:25:09;101185.84;;;6.91;100.00
51928;BME280;37953;52.806;18.270;2023-05-01T04:27:35;101182.47;;;6.94;100.00
51928;BME280;37953;52.806;18.270;2023-05-01T04:30:01;101182.50;;;6.96;100.00
51928;BME280;37953;52.806;18.270;2023-05-01T04:32:28;101185.19;;;6.99;100.00
51928;BME280;37953;52.806;18.270;2023-05-01T04:34:53;101185.22;;;7.00;100.00
51928;BME280;37953;52.806;18.270;2023-05-01T04:37:19;101191.31;;;7.02;100.00
51928;BME280;37953;52.806;18.270;2023-05-01T04:39:45;101191.31;;;7.02;100.00
51928;BME280;37953;52.806;18.270;2023-05-01T04:42:11;101188.78;;;7.04;100.00
51928;BME280;37953;52.806;18.270;2023-05-01T04:44:37;101192.34;;;7.07;100.00
51928;BME280;37953;52.806;18.270;2023-05-01T04:47:03;101191.44;;;7.07;100.00
51928;BME280;37953;52.806;18.270;2023-05-01T04:49:30;101194.94;;;7.09;100.00
51928;BME280;37953;52.806;18.270;2023-05-01T04:51:59;101194.19;;;7.13;100.00
51928;BME280;37953;52.806;18.270;2023-05-01T04:54:25;101192.53;;;7.15;100.00
51928;BME280;37953;52.806;18.270;2023-05-01T04:56:52;101191.78;;;7.19;100.00
51928;BME280;37953;52.806;18.270;2023-05-01T04:59:18;101184.22;;;7.25;100.00
51928;BME280;37953;52.806;18.270;2023-05-01T05:01:44;101189.50;;;7.30;100.00
51928;BME280;37953;52.806;18.270;2023-05-01T05:04:10;101194.91;;;7.38;100.00
51928;BME280;37953;52.806;18.270;2023-05-01T05:06:36;101188.94;;;7.40;100.00
51928;BME280;37953;52.806;18.270;2023-05-01T05:09:02;101183.94;;;7.46;100.00
51928;BME280;37953;52.806;18.270;2023-05-01T05:11:28;101178.00;;;7.50;100.00
51928;BME280;37953;52.806;18.270;2023-05-01T05:13:54;101176.41;;;7.55;100.00
51928;BME280;37953;52.806;18.270;2023-05-01T05:16:20;101173.97;;;7.60;100.00
51928;BME280;37953;52.806;18.270;2023-05-01T05:18:46;101169.72;;;7.64;100.00
51928;BME280;37953;52.806;18.270;2023-05-01T05:21:12;101169.88;;;7.68;100.00
51928;BME280;37953;52.806;18.270;2023-05-01T05:23:38;101173.44;;;7.73;100.00
51928;BME280;37953;52.806;18.270;2023-05-01T05:26:04;101173.59;;;7.80;100.00
51928;BME280;37953;52.806;18.270;2023-05-01T05:28:30;101170.19;;;7.82;100.00
51928;BME280;37953;52.806;18.270;2023-05-01T05:30:56;101170.38;;;7.88;100.00
51928;BME280;37953;52.806;18.270;2023-05-01T05:33:22;101167.06;;;7.94;100.00
51928;BME280;37953;52.806;18.270;2023-05-01T05:35:52;101168.03;;;7.99;100.00
51928;BME280;37953;52.806;18.270;2023-05-01T05:38:19;101167.28;;;8.03;100.00
51928;BME280;37953;52.806;18.270;2023-05-01T05:40:45;101160.47;;;8.07;100.00
51928;BME280;37953;52.806;18.270;2023-05-01T05:43:11;101160.56;;;8.11;100.00
51928;BME280;37953;52.806;18.270;2023-05-01T05:45:37;101159.75;;;8.14;100.00
51928;BME280;37953;52.806;18.270;2023-05-01T05:48:03;101152.09;;;8.19;100.00
51928;BME280;37953;52.806;18.270;2023-05-01T05:50:29;101159.16;;;8.24;100.00
51928;BME280;37953;52.806;18.270;2023-05-01T05:52:55;101153.22;;;8.28;100.00
51928;BME280;37953;52.806;18.270;2023-05-01T05:55:21;101156.75;;;8.32;100.00
51928;BME280;37953;52.806;18.270;2023-05-01T05:57:47;101151.66;;;8.36;100.00
51928;BME280;37953;52.806;18.270;2023-05-01T06:00:14;101154.41;;;8.41;100.00
51928;BME280;37953;52.806;18.270;2023-05-01T06:02:40;101156.25;;;8.47;100.00
51928;BME280;37953;52.806;18.270;2023-05-01T06:05:06;101160.66;;;8.51;100.00
51928;BME280;37953;52.806;18.270;2023-05-01T06:07:32;101156.41;;;8.54;100.00
51928;BME280;37953;52.806;18.270;2023-05-01T06:10:05;101161.72;;;8.61;100.00
51928;BME280;37953;52.806;18.270;2023-05-01T06:12:31;101158.38;;;8.65;100.00
51928;BME280;37953;52.806;18.270;2023-05-01T06:14:57;101156.72;;;8.68;100.00
51928;BME280;37953;52.806;18.270;2023-05-01T06:17:24;101161.13;;;8.74;100.00
51928;BME280;37953;52.806;18.270;2023-05-01T06:19:50;101156.09;;;8.80;100.00
51928;BME280;37953;52.806;18.270;2023-05-01T06:22:19;101158.75;;;8.83;100.00
51928;BME280;37953;52.806;18.270;2023-05-01T06:24:45;101160.56;;;8.87;100.00
51928;BME280;37953;52.806;18.270;2023-05-01T06:27:11;101155.47;;;8.92;100.00
51928;BME280;37953;52.806;18.270;2023-05-01T06:29:38;101156.44;;;8.95;100.00
51928;BME280;37953;52.806;18.270;2023-05-01T06:32:04;101151.34;;;9.00;100.00
51928;BME280;37953;52.806;18.270;2023-05-01T06:34:30;101151.41;;;9.05;100.00
51928;BME280;37953;52.806;18.270;2023-05-01T06:36:56;101154.13;;;9.11;100.00
51928;BME280;37953;52.806;18.270;2023-05-01T06:39:22;101156.00;;;9.16;100.00
51928;BME280;37953;52.806;18.270;2023-05-01T06:41:48;101156.94;;;9.22;100.00
51928;BME280;37953;52.806;18.270;2023-05-01T06:44:15;101154.47;;;9.28;100.00
51928;BME280;37953;52.806;18.270;2023-05-01T06:46:41;101145.03;;;9.31;100.00
51928;BME280;37953;52.806;18.270;2023-05-01T06:49:07;101151.16;;;9.36;100.00
51928;BME280;37953;52.806;18.270;2023-05-01T06:51:33;101142.59;;;9.41;100.00
51928;BME280;37953;52.806;18.270;2023-05-01T06:53:59;101144.41;;;9.45;100.00
51928;BME280;37953;52.806;18.270;2023-05-01T06:56:25;101141.03;;;9.49;100.00
51928;BME280;37953;52.806;18.270;2023-05-01T06:58:51;101143.69;;;9.53;100.00
51928;BME280;37953;52.806;18.270;2023-05-01T07:01:17;101132.38;;;9.50;100.00
51928;BME280;37953;52.806;18.270;2023-05-01T07:03:43;101134.25;;;9.57;100.00
51928;BME280;37953;52.806;18.270;2023-05-01T07:06:09;101124.78;;;9.61;100.00
51928;BME280;37953;52.806;18.270;2023-05-01T07:08:36;101130.16;;;9.70;100.00
51928;BME280;37953;52.806;18.270;2023-05-01T07:11:01;101121.53;;;9.72;100.00
51928;BME280;37953;52.806;18.270;2023-05-01T07:13:28;101127.72;;;9.81;100.00
51928;BME280;37953;52.806;18.270;2023-05-01T07:15:53;101130.44;;;9.87;100.00
51928;BME280;37953;52.806;18.270;2023-05-01T07:18:19;101119.16;;;9.86;100.00
51928;BME280;37953;52.806;18.270;2023-05-01T07:20:45;101135.75;;;9.96;99.80
51928;BME280;37953;52.806;18.270;2023-05-01T07:23:12;101137.53;;;9.98;99.09
51928;BME280;37953;52.806;18.270;2023-05-01T07:25:37;101123.72;;;9.99;100.00
51928;BME280;37953;52.806;18.270;2023-05-01T07:28:06;101130.72;;;10.07;99.17
51928;BME280;37953;52.806;18.270;2023-05-01T07:30:35;101133.41;;;10.10;94.28
51928;BME280;37953;52.806;18.270;2023-05-01T07:33:01;101131.66;;;10.10;93.57
51928;BME280;37953;52.806;18.270;2023-05-01T07:35:27;101133.47;;;10.14;92.50
51928;BME280;37953;52.806;18.270;2023-05-01T07:37:53;101131.78;;;10.19;92.12
51928;BME280;37953;52.806;18.270;2023-05-01T07:40:19;101130.97;;;10.24;91.61
51928;BME280;37953;52.806;18.270;2023-05-01T07:42:46;101133.72;;;10.30;90.80
51928;BME280;37953;52.806;18.270;2023-05-01T07:45:11;101131.13;;;10.30;90.15
51928;BME280;37953;52.806;18.270;2023-05-01T07:47:38;101126.91;;;10.38;88.63
51928;BME280;37953;52.806;18.270;2023-05-01T07:50:04;101132.13;;;10.41;86.80
51928;BME280;37953;52.806;18.270;2023-05-01T07:52:30;101125.28;;;10.46;87.36
51928;BME280;37953;52.806;18.270;2023-05-01T07:54:56;101124.47;;;10.52;87.25
51928;BME280;37953;52.806;18.270;2023-05-01T07:57:23;101127.16;;;10.56;85.47
51928;BME280;37953;52.806;18.270;2023-05-01T07:59:53;101125.47;;;10.58;81.73
51928;BME280;37953;52.806;18.270;2023-05-01T08:02:21;101121.16;;;10.62;82.08
51928;BME280;37953;52.806;18.270;2023-05-01T08:04:47;101123.81;;;10.67;80.36
51928;BME280;37953;52.806;18.270;2023-05-01T08:07:13;101117.81;;;10.69;79.07
51928;BME280;37953;52.806;18.270;2023-05-01T08:09:39;101123.09;;;10.75;78.60
51928;BME280;37953;52.806;18.270;2023-05-01T08:12:06;101120.50;;;10.78;77.83
51928;BME280;37953;52.806;18.270;2023-05-01T08:14:32;101121.41;;;10.84;76.96
51928;BME280;37953;52.806;18.270;2023-05-01T08:16:58;101117.13;;;10.87;77.04
51928;BME280;37953;52.806;18.270;2023-05-01T08:19:25;101106.78;;;10.90;77.41
51928;BME280;37953;52.806;18.270;2023-05-01T08:21:52;101108.59;;;10.94;77.64
51928;BME280;37953;52.806;18.270;2023-05-01T08:24:19;101102.56;;;11.00;78.10
51928;BME280;37953;52.806;18.270;2023-05-01T08:26:48;101097.41;;;11.03;78.25
51928;BME280;37953;52.806;18.270;2023-05-01T08:29:15;101097.47;;;11.09;77.33
51928;BME280;37953;52.806;18.270;2023-05-01T08:31:41;101101.84;;;11.15;77.00
51928;BME280;37953;52.806;18.270;2023-05-01T08:34:08;101093.22;;;11.19;76.68
51928;BME280;37953;52.806;18.270;2023-05-01T08:36:34;101090.66;;;11.24;76.41
51928;BME280;37953;52.806;18.270;2023-05-01T08:39:06;101099.44;;;11.30;76.74
51928;BME280;37953;52.806;18.270;2023-05-01T08:41:33;101093.38;;;11.34;77.14
51928;BME280;37953;52.806;18.270;2023-05-01T08:44:00;101088.22;;;11.37;77.19
51928;BME280;37953;52.806;18.270;2023-05-01T08:49:23;101094.38;;;11.46;74.75
51928;BME280;37953;52.806;18.270;2023-05-01T08:51:50;101093.53;;;11.50;73.53
51928;BME280;37953;52.806;18.270;2023-05-01T08:54:19;101086.59;;;11.53;75.55
51928;BME280;37953;52.806;18.270;2023-05-01T08:56:46;101083.19;;;11.56;73.95
51928;BME280;37953;52.806;18.270;2023-05-01T08:59:12;101075.41;;;11.60;74.15
51928;BME280;37953;52.806;18.270;2023-05-01T09:01:40;101080.66;;;11.67;76.24
51928;BME280;37953;52.806;18.270;2023-05-01T09:04:08;101079.81;;;11.72;77.21
51928;BME280;37953;52.806;18.270;2023-05-01T09:06:35;101077.25;;;11.75;77.20
51928;BME280;37953;52.806;18.270;2023-05-01T09:09:01;101087.69;;;11.80;74.70
51928;BME280;37953;52.806;18.270;2023-05-01T09:11:27;101075.59;;;11.84;75.47
51928;BME280;37953;52.806;18.270;2023-05-01T09:13:54;101077.34;;;11.88;74.13
51928;BME280;37953;52.806;18.270;2023-05-01T09:16:20;101076.53;;;11.93;71.77
51928;BME280;37953;52.806;18.270;2023-05-01T09:18:54;101077.44;;;12.00;72.10
51928;BME280;37953;52.806;18.270;2023-05-01T09:21:20;101067.94;;;12.05;69.13
51928;BME280;37953;52.806;18.270;2023-05-01T09:23:49;101065.41;;;12.13;71.25
51928;BME280;37953;52.806;18.270;2023-05-01T09:26:16;101075.84;;;12.19;70.36
51928;BME280;37953;52.806;18.270;2023-05-01T09:28:46;101068.06;;;12.24;70.68
51928;BME280;37953;52.806;18.270;2023-05-01T09:31:26;101055.94;;;12.29;69.06
51928;BME280;37953;52.806;18.270;2023-05-01T09:34:01;101056.81;;;12.32;68.52
51928;BME280;37953;52.806;18.270;2023-05-01T09:36:29;101056.84;;;12.37;69.41
51928;BME280;37953;52.806;18.270;2023-05-01T09:39:02;101049.06;;;12.43;68.04
51928;BME280;37953;52.806;18.270;2023-05-01T09:41:29;101047.31;;;12.48;69.96
51928;BME280;37953;52.806;18.270;2023-05-01T09:43:58;101046.50;;;12.54;69.79
51928;BME280;37953;52.806;18.270;2023-05-01T09:46:25;101044.78;;;12.57;69.46
51928;BME280;37953;52.806;18.270;2023-05-01T09:48:58;101036.97;;;12.62;70.41
51928;BME280;37953;52.806;18.270;2023-05-01T09:51:30;101026.56;;;12.67;71.46
51928;BME280;37953;52.806;18.270;2023-05-01T09:53:59;101025.72;;;12.72;72.84
51928;BME280;37953;52.806;18.270;2023-05-01T09:56:27;101022.22;;;12.75;73.46
51928;BME280;37953;52.806;18.270;2023-05-01T10:01:59;101013.56;;;12.82;73.48
51928;BME280;37953;52.806;18.270;2023-05-01T10:04:30;101014.44;;;12.87;76.58
51928;BME280;37953;52.806;18.270;2023-05-01T10:07:15;101015.31;;;12.94;74.71
51928;BME280;37953;52.806;18.270;2023-05-01T10:09:41;101013.59;;;13.02;73.27
51928;BME280;37953;52.806;18.270;2023-05-01T10:12:07;101015.34;;;13.09;70.95
51928;BME280;37953;52.806;18.270;2023-05-01T10:14:33;101012.72;;;13.14;70.82
51928;BME280;37953;52.806;18.270;2023-05-01T10:17:19;101011.88;;;13.21;69.63
51928;BME280;37953;52.806;18.270;2023-05-01T10:19:46;101007.53;;;13.26;72.12
51928;BME280;37953;52.806;18.270;2023-05-01T10:22:19;101000.59;;;13.31;72.87
51928;BME280;37953;52.806;18.270;2023-05-01T10:24:44;100998.00;;;13.39;71.46
51928;BME280;37953;52.806;18.270;2023-05-01T10:27:11;100995.38;;;13.45;73.81
51928;BME280;37953;52.806;18.270;2023-05-01T10:29:39;100995.38;;;13.50;74.25
51928;BME280;37953;52.806;18.270;2023-05-01T10:32:10;100997.09;;;13.58;76.28
51928;BME280;37953;52.806;18.270;2023-05-01T10:34:39;100986.66;;;13.63;72.61
51928;BME280;37953;52.806;18.270;2023-05-01T10:37:14;100984.91;;;13.68;70.12
51928;BME280;37953;52.806;18.270;2023-05-01T10:39:42;100984.03;;;13.74;68.40
51928;BME280;37953;52.806;18.270;2023-05-01T10:42:09;100980.56;;;13.76;68.12
51928;BME280;37953;52.806;18.270;2023-05-01T10:44:39;100976.16;;;13.80;68.64
51928;BME280;37953;52.806;18.270;2023-05-01T10:50:11;100972.66;;;13.90;66.11
51928;BME280;37953;52.806;18.270;2023-05-01T10:55:35;100970.00;;;14.01;65.92
51928;BME280;37953;52.806;18.270;2023-05-01T10:58:01;100969.13;;;14.08;67.21
51928;BME280;37953;52.806;18.270;2023-05-01T11:00:28;100958.66;;;14.14;67.89
51928;BME280;37953;52.806;18.270;2023-05-01T11:06:04;100958.59;;;14.28;68.35
51928;BME280;37953;52.806;18.270;2023-05-01T11:08:35;100952.47;;;14.35;68.18
51928;BME280;37953;52.806;18.270;2023-05-01T11:14:00;100955.00;;;14.48;67.85
51928;BME280;37953;52.806;18.270;2023-05-01T11:16:45;100940.19;;;14.54;65.76
51928;BME280;37953;52.806;18.270;2023-05-01T11:19:43;100941.03;;;14.59;63.92
51928;BME280;37953;52.806;18.270;2023-05-01T11:22:12;100942.72;;;14.66;64.92
51928;BME280;37953;52.806;18.270;2023-05-01T11:24:38;100937.47;;;14.71;64.22
51928;BME280;37953;52.806;18.270;2023-05-01T11:27:05;100934.84;;;14.76;63.51
51928;BME280;37953;52.806;18.270;2023-05-01T11:29:31;100940.88;;;14.81;63.96
51928;BME280;37953;52.806;18.270;2023-05-01T11:31:59;100936.50;;;14.86;62.36
51928;BME280;37953;52.806;18.270;2023-05-01T11:34:26;100927.75;;;14.90;59.85
51928;BME280;37953;52.806;18.270;2023-05-01T11:36:52;100926.81;;;14.96;57.98
51928;BME280;37953;52.806;18.270;2023-05-01T11:39:19;100917.16;;;15.02;57.90
51928;BME280;37953;52.806;18.270;2023-05-01T11:41:45;100924.13;;;15.08;57.51
51928;BME280;37953;52.806;18.270;2023-05-01T11:44:16;100915.34;;;15.12;56.28
51928;BME280;37953;52.806;18.270;2023-05-01T11:46:42;100921.41;;;15.19;55.93
51928;BME280;37953;52.806;18.270;2023-05-01T11:49:16;100905.66;;;15.23;54.63
51928;BME280;37953;52.806;18.270;2023-05-01T11:52:01;100904.72;;;15.31;54.91
51928;BME280;37953;52.806;18.270;2023-05-01T11:54:27;100899.44;;;15.37;54.71
51928;BME280;37953;52.806;18.270;2023-05-01T11:57:03;100900.25;;;15.40;54.45
51928;BME280;37953;52.806;18.270;2023-05-01T11:59:29;100895.84;;;15.45;54.93
51928;BME280;37953;52.806;18.270;2023-05-01T12:01:55;100888.78;;;15.51;53.40
51928;BME280;37953;52.806;18.270;2023-05-01T12:04:23;100881.78;;;15.56;52.48
51928;BME280;37953;52.806;18.270;2023-05-01T12:06:50;100877.34;;;15.61;53.72
51928;BME280;37953;52.806;18.270;2023-05-01T12:09:27;100870.28;;;15.67;55.02
51928;BME280;37953;52.806;18.270;2023-05-01T12:11:54;100874.63;;;15.73;52.46
51928;BME280;37953;52.806;18.270;2023-05-01T12:14:20;100869.31;;;15.76;52.81
51928;BME280;37953;52.806;18.270;2023-05-01T12:16:47;100871.88;;;15.82;53.40
51928;BME280;37953;52.806;18.270;2023-05-01T12:19:14;100864.78;;;15.89;53.43
51928;BME280;37953;52.806;18.270;2023-05-01T12:21:40;100862.97;;;15.96;52.45
51928;BME280;37953;52.806;18.270;2023-05-01T12:24:11;100866.41;;;16.01;51.33
51928;BME280;37953;52.806;18.270;2023-05-01T12:26:39;100868.03;;;16.08;51.62
51928;BME280;37953;52.806;18.270;2023-05-01T12:29:12;100867.94;;;16.16;50.66
51928;BME280;37953;52.806;18.270;2023-05-01T12:31:47;100863.47;;;16.22;50.22
51928;BME280;37953;52.806;18.270;2023-05-01T12:34:13;100844.19;;;16.28;50.66
51928;BME280;37953;52.806;18.270;2023-05-01T12:36:39;100852.84;;;16.33;48.96
51928;BME280;37953;52.806;18.270;2023-05-01T12:39:07;100842.28;;;16.38;50.01
51928;BME280;37953;52.806;18.270;2023-05-01T12:41:50;100839.56;;;16.44;53.53
51928;BME280;37953;52.806;18.270;2023-05-01T12:44:24;100833.38;;;16.48;51.67
51928;BME280;37953;52.806;18.270;2023-05-01T12:46:53;100823.72;;;16.50;50.79
51928;BME280;37953;52.806;18.270;2023-05-01T12:49:21;100820.16;;;16.56;50.51
51928;BME280;37953;52.806;18.270;2023-05-01T12:51:56;100822.72;;;16.57;51.06
51928;BME280;37953;52.806;18.270;2023-05-01T12:54:27;100811.34;;;16.60;50.27
51928;BME280;37953;52.806;18.270;2023-05-01T12:57:14;100820.00;;;16.65;51.71
51928;BME280;37953;52.806;18.270;2023-05-01T12:59:43;100815.50;;;16.73;50.73
51928;BME280;37953;52.806;18.270;2023-05-01T13:02:14;100805.75;;;16.81;50.40
51928;BME280;37953;52.806;18.270;2023-05-01T13:04:45;100795.16;;;16.87;49.67
51928;BME280;37953;52.806;18.270;2023-05-01T13:07:15;100793.25;;;16.96;48.61
51928;BME280;37953;52.806;18.270;2023-05-01T13:09:52;100789.59;;;17.06;49.34
51928;BME280;37953;52.806;18.270;2023-05-01T13:12:19;100783.28;;;17.15;50.28
51928;BME280;37953;52.806;18.270;2023-05-01T13:14:46;100777.91;;;17.21;49.63
51928;BME280;37953;52.806;18.270;2023-05-01T13:17:30;100775.09;;;17.30;48.12
51928;BME280;37953;52.806;18.270;2023-05-01T13:20:03;100774.91;;;17.39;49.85
51928;BME280;37953;52.806;18.270;2023-05-01T13:22:36;100778.22;;;17.47;50.20
51928;BME280;37953;52.806;18.270;2023-05-01T13:25:18;100773.69;;;17.56;50.28